sensor_id;sensor_type;location;lat;lon;timestamp;temperature;humidity
66102;HTU21D;52883;51.094;5.880;2023-04-01T00:00:22;9.60;118.99
66102;HTU21D;52883;51.094;5.880;2023-04-01T00:02:47;9.60;118.99
66102;HTU21D;52883;51.094;5.880;2023-04-01T00:05:14;9.60;118.99
66102;HTU21D;52883;51.094;5.880;2023-04-01T00:07:40;9.55;118.99
66102;HTU21D;52883;51.094;5.880;2023-04-01T00:10:08;9.55;118.99
66102;HTU21D;52883;51.094;5.880;2023-04-01T00:12:35;9.54;118.99
66102;HTU21D;52883;51.094;5.880;2023-04-01T00:15:03;9.56;118.99
66102;HTU21D;52883;51.094;5.880;2023-04-01T00:17:29;9.56;118.99
66102;HTU21D;52883;51.094;5.880;2023-04-01T00:19:55;9.61;118.99
66102;HTU21D;52883;51.094;5.880;2023-04-01T00:22:21;9.53;118.99
66102;HTU21D;52883;51.094;5.880;2023-04-01T00:24:47;9.57;118.99
66102;HTU21D;52883;51.094;5.880;2023-04-01T00:27:13;9.53;118.99
66102;HTU21D;52883;51.094;5.880;2023-04-01T00:29:45;9.54;118.99
66102;HTU21D;52883;51.094;5.880;2023-04-01T00:32:12;9.54;118.99
66102;HTU21D;52883;51.094;5.880;2023-04-01T00:34:38;9.55;118.99
66102;HTU21D;52883;51.094;5.880;2023-04-01T00:37:05;9.54;118.99
66102;HTU21D;52883;51.094;5.880;2023-04-01T00:39:33;9.53;118.99
66102;HTU21D;52883;51.094;5.880;2023-04-01T00:41:59;9.55;118.99
66102;HTU21D;52883;51.094;5.880;2023-04-01T00:44:31;9.49;118.99
66102;HTU21D;52883;51.094;5.880;2023-04-01T00:46:58;9.48;118.99
66102;HTU21D;52883;51.094;5.880;2023-04-01T00:49:31;9.44;118.99
66102;HTU21D;52883;51.094;5.880;2023-04-01T00:52:01;9.41;118.99
66102;HTU21D;52883;51.094;5.880;2023-04-01T00:54:30;9.38;118.99
66102;HTU21D;52883;51.094;5.880;2023-04-01T00:57:10;9.39;118.99
66102;HTU21D;52883;51.094;5.880;2023-04-01T00:59:44;9.38;118.99
66102;HTU21D;52883;51.094;5.880;2023-04-01T01:02:13;9.38;118.99
66102;HTU21D;52883;51.094;5.880;2023-04-01T01:04:39;9.38;118.99
66102;HTU21D;52883;51.094;5.880;2023-04-01T01:15:26;9.37;118.99
66102;HTU21D;52883;51.094;5.880;2023-04-01T01:29:40;9.37;118.99
66102;HTU21D;52883;51.094;5.880;2023-04-01T01:34:53;9.40;118.99
66102;HTU21D;52883;51.094;5.880;2023-04-01T01:37:25;9.38;118.99
66102;HTU21D;52883;51.094;5.880;2023-04-01T01:39:58;9.38;118.99
66102;HTU21D;52883;51.094;5.880;2023-04-01T01:42:28;9.39;118.99
66102;HTU21D;52883;51.094;5.880;2023-04-01T01:44:59;9.40;118.99
66102;HTU21D;52883;51.094;5.880;2023-04-01T01:47:28;9.45;118.99
66102;HTU21D;52883;51.094;5.880;2023-04-01T01:49:56;9.42;118.99
66102;HTU21D;52883;51.094;5.880;2023-04-01T01:52:23;9.45;118.99
66102;HTU21D;52883;51.094;5.880;2023-04-01T01:54:52;9.47;118.99
66102;HTU21D;52883;51.094;5.880;2023-04-01T01:57:28;9.49;118.99
66102;HTU21D;52883;51.094;5.880;2023-04-01T02:00:06;9.45;118.99
66102;HTU21D;52883;51.094;5.880;2023-04-01T02:02:44;9.47;118.99
66102;HTU21D;52883;51.094;5.880;2023-04-01T02:05:20;9.47;118.99
66102;HTU21D;52883;51.094;5.880;2023-04-01T02:08:10;9.46;118.99
66102;HTU21D;52883;51.094;5.880;2023-04-01T02:10:42;9.47;118.99
66102;HTU21D;52883;51.094;5.880;2023-04-01T02:13:22;9.48;118.99
66102;HTU21D;52883;51.094;5.880;2023-04-01T02:15:56;9.46;118.99
66102;HTU21D;52883;51.094;5.880;2023-04-01T02:18:23;9.46;118.99
66102;HTU21D;52883;51.094;5.880;2023-04-01T02:20:51;9.42;118.99
66102;HTU21D;52883;51.094;5.880;2023-04-01T02:23:17;9.44;118.99
66102;HTU21D;52883;51.094;5.880;2023-04-01T02:25:45;9.45;118.99
66102;HTU21D;52883;51.094;5.880;2023-04-01T02:28:14;9.44;118.99
66102;HTU21D;52883;51.094;5.880;2023-04-01T02:30:44;9.45;118.99
66102;HTU21D;52883;51.094;5.880;2023-04-01T02:33:11;9.46;118.99
66102;HTU21D;52883;51.094;5.880;2023-04-01T02:35:37;9.46;118.99
66102;HTU21D;52883;51.094;5.880;2023-04-01T02:38:03;9.49;118.99
66102;HTU21D;52883;51.094;5.880;2023-04-01T02:40:29;9.48;118.99
66102;HTU21D;52883;51.094;5.880;2023-04-01T02:42:55;9.50;118.99
66102;HTU21D;52883;51.094;5.880;2023-04-01T02:45:20;9.51;118.99
66102;HTU21D;52883;51.094;5.880;2023-04-01T02:47:46;9.51;118.99
66102;HTU21D;52883;51.094;5.880;2023-04-01T02:50:12;9.51;118.99
66102;HTU21D;52883;51.094;5.880;2023-04-01T02:52:37;9.51;118.99
66102;HTU21D;52883;51.094;5.880;2023-04-01T02:55:04;9.49;118.99
66102;HTU21D;52883;51.094;5.880;2023-04-01T02:57:30;9.51;118.99
66102;HTU21D;52883;51.094;5.880;2023-04-01T02:59:55;9.52;118.99
66102;HTU21D;52883;51.094;5.880;2023-04-01T03:02:21;9.46;118.99
66102;HTU21D;52883;51.094;5.880;2023-04-01T03:04:47;9.47;118.99
66102;HTU21D;52883;51.094;5.880;2023-04-01T03:07:13;9.49;118.99
66102;HTU21D;52883;51.094;5.880;2023-04-01T03:09:38;9.52;118.99
66102;HTU21D;52883;51.094;5.880;2023-04-01T03:12:05;9.48;118.99
66102;HTU21D;52883;51.094;5.880;2023-04-01T03:14:37;9.46;118.99
66102;HTU21D;52883;51.094;5.880;2023-04-01T03:17:02;9.48;118.99
66102;HTU21D;52883;51.094;5.880;2023-04-01T03:19:28;9.49;118.99
66102;HTU21D;52883;51.094;5.880;2023-04-01T03:21:54;9.49;118.99
66102;HTU21D;52883;51.094;5.880;2023-04-01T03:24:20;9.47;118.99
66102;HTU21D;52883;51.094;5.880;2023-04-01T03:26:46;9.51;118.99
66102;HTU21D;52883;51.094;5.880;2023-04-01T03:29:12;9.51;118.99
66102;HTU21D;52883;51.094;5.880;2023-04-01T03:31:37;9.52;118.99
66102;HTU21D;52883;51.094;5.880;2023-04-01T03:34:03;9.48;118.99
66102;HTU21D;52883;51.094;5.880;2023-04-01T03:36:28;9.47;118.99
66102;HTU21D;52883;51.094;5.880;2023-04-01T03:38:54;9.49;118.99
66102;HTU21D;52883;51.094;5.880;2023-04-01T03:41:29;9.51;118.99
66102;HTU21D;52883;51.094;5.880;2023-04-01T03:43:56;9.54;118.99
66102;HTU21D;52883;51.094;5.880;2023-04-01T03:46:22;9.51;118.99
66102;HTU21D;52883;51.094;5.880;2023-04-01T03:48:47;9.50;118.99
66102;HTU21D;52883;51.094;5.880;2023-04-01T03:51:13;9.50;118.99
66102;HTU21D;52883;51.094;5.880;2023-04-01T03:53:39;9.51;118.99
66102;HTU21D;52883;51.094;5.880;2023-04-01T03:56:06;9.52;118.99
66102;HTU21D;52883;51.094;5.880;2023-04-01T03:58:35;9.51;118.99
66102;HTU21D;52883;51.094;5.880;2023-04-01T04:01:01;9.50;118.99
66102;HTU21D;52883;51.094;5.880;2023-04-01T04:03:27;9.49;118.99
66102;HTU21D;52883;51.094;5.880;2023-04-01T04:05:53;9.49;118.99
66102;HTU21D;52883;51.094;5.880;2023-04-01T04:08:21;9.46;118.99
66102;HTU21D;52883;51.094;5.880;2023-04-01T04:10:47;9.44;118.99
66102;HTU21D;52883;51.094;5.880;2023-04-01T04:13:13;9.42;118.99
66102;HTU21D;52883;51.094;5.880;2023-04-01T04:15:46;9.51;118.99
66102;HTU21D;52883;51.094;5.880;2023-04-01T04:18:12;9.45;118.99
66102;HTU21D;52883;51.094;5.880;2023-04-01T04:20:46;9.46;118.99
66102;HTU21D;52883;51.094;5.880;2023-04-01T04:23:17;9.44;118.99
66102;HTU21D;52883;51.094;5.880;2023-04-01T04:25:57;9.46;118.99
66102;HTU21D;52883;51.094;5.880;2023-04-01T04:28:23;9.44;118.99
66102;HTU21D;52883;51.094;5.880;2023-04-01T04:30:48;9.45;118.99
66102;HTU21D;52883;51.094;5.880;2023-04-01T04:33:14;9.46;118.99
66102;HTU21D;52883;51.094;5.880;2023-04-01T04:35:40;9.45;118.99
66102;HTU21D;52883;51.094;5.880;2023-04-01T04:38:06;9.46;118.99
66102;HTU21D;52883;51.094;5.880;2023-04-01T04:40:32;9.44;118.99
66102;HTU21D;52883;51.094;5.880;2023-04-01T04:42:57;9.41;118.99
66102;HTU21D;52883;51.094;5.880;2023-04-01T04:45:24;9.42;118.99
66102;HTU21D;52883;51.094;5.880;2023-04-01T04:47:53;9.37;118.99
66102;HTU21D;52883;51.094;5.880;2023-04-01T04:50:19;9.38;118.99
66102;HTU21D;52883;51.094;5.880;2023-04-01T04:52:45;9.38;118.99
66102;HTU21D;52883;51.094;5.880;2023-04-01T04:55:10;9.38;118.99
66102;HTU21D;52883;51.094;5.880;2023-04-01T04:57:37;9.39;118.99
66102;HTU21D;52883;51.094;5.880;2023-04-01T05:00:03;9.38;118.99
66102;HTU21D;52883;51.094;5.880;2023-04-01T05:02:42;9.39;118.99
66102;HTU21D;52883;51.094;5.880;2023-04-01T05:05:08;9.38;118.99
66102;HTU21D;52883;51.094;5.880;2023-04-01T05:07:34;9.37;118.99
66102;HTU21D;52883;51.094;5.880;2023-04-01T05:09:59;9.38;118.99
66102;HTU21D;52883;51.094;5.880;2023-04-01T05:12:26;9.38;118.99
66102;HTU21D;52883;51.094;5.880;2023-04-01T05:15:00;9.37;118.99
66102;HTU21D;52883;51.094;5.880;2023-04-01T05:17:26;9.37;118.99
66102;HTU21D;52883;51.094;5.880;2023-04-01T05:19:51;9.39;118.99
66102;HTU21D;52883;51.094;5.880;2023-04-01T05:22:17;9.42;118.99
66102;HTU21D;52883;51.094;5.880;2023-04-01T05:24:43;9.40;118.99
66102;HTU21D;52883;51.094;5.880;2023-04-01T05:27:08;9.39;118.99
66102;HTU21D;52883;51.094;5.880;2023-04-01T05:29:38;9.37;118.99
66102;HTU21D;52883;51.094;5.880;2023-04-01T05:32:06;9.36;118.99
66102;HTU21D;52883;51.094;5.880;2023-04-01T05:34:32;9.37;118.99
66102;HTU21D;52883;51.094;5.880;2023-04-01T05:36:57;9.40;118.99
66102;HTU21D;52883;51.094;5.880;2023-04-01T05:39:23;9.39;118.99
66102;HTU21D;52883;51.094;5.880;2023-04-01T05:41:49;9.39;118.99
66102;HTU21D;52883;51.094;5.880;2023-04-01T05:44:15;9.42;118.99
66102;HTU21D;52883;51.094;5.880;2023-04-01T05:46:41;9.44;118.99
66102;HTU21D;52883;51.094;5.880;2023-04-01T05:49:17;9.42;118.99
66102;HTU21D;52883;51.094;5.880;2023-04-01T05:51:43;9.45;118.99
66102;HTU21D;52883;51.094;5.880;2023-04-01T05:54:08;9.45;118.99
66102;HTU21D;52883;51.094;5.880;2023-04-01T05:56:35;9.47;118.99
66102;HTU21D;52883;51.094;5.880;2023-04-01T05:59:01;9.46;118.99
66102;HTU21D;52883;51.094;5.880;2023-04-01T06:01:26;9.47;118.99
66102;HTU21D;52883;51.094;5.880;2023-04-01T06:03:52;9.46;118.99
66102;HTU21D;52883;51.094;5.880;2023-04-01T06:06:29;9.44;118.99
66102;HTU21D;52883;51.094;5.880;2023-04-01T06:09:26;9.42;118.99
66102;HTU21D;52883;51.094;5.880;2023-04-01T06:12:45;9.41;118.99
66102;HTU21D;52883;51.094;5.880;2023-04-01T06:21:07;9.47;118.99
66102;HTU21D;52883;51.094;5.880;2023-04-01T06:26:49;9.56;118.99
66102;HTU21D;52883;51.094;5.880;2023-04-01T06:29:43;9.56;118.99
66102;HTU21D;52883;51.094;5.880;2023-04-01T06:32:22;9.56;118.99
66102;HTU21D;52883;51.094;5.880;2023-04-01T06:40:51;9.50;118.99
66102;HTU21D;52883;51.094;5.880;2023-04-01T06:46:45;9.51;118.99
66102;HTU21D;52883;51.094;5.880;2023-04-01T06:50:15;9.51;118.99
66102;HTU21D;52883;51.094;5.880;2023-04-01T06:53:12;9.57;118.99
66102;HTU21D;52883;51.094;5.880;2023-04-01T06:56:05;9.65;118.99
66102;HTU21D;52883;51.094;5.880;2023-04-01T06:58:55;9.72;118.99
66102;HTU21D;52883;51.094;5.880;2023-04-01T07:01:39;9.70;118.99
66102;HTU21D;52883;51.094;5.880;2023-04-01T07:06:48;9.76;118.99
66102;HTU21D;52883;51.094;5.880;2023-04-01T07:09:24;9.78;118.99
66102;HTU21D;52883;51.094;5.880;2023-04-01T07:15:28;9.76;118.99
66102;HTU21D;52883;51.094;5.880;2023-04-01T07:18:05;9.74;118.99
66102;HTU21D;52883;51.094;5.880;2023-04-01T07:20:32;9.69;118.99
66102;HTU21D;52883;51.094;5.880;2023-04-01T07:23:04;9.65;118.99
66102;HTU21D;52883;51.094;5.880;2023-04-01T07:26:17;9.65;118.99
66102;HTU21D;52883;51.094;5.880;2023-04-01T07:28:54;9.66;118.99
66102;HTU21D;52883;51.094;5.880;2023-04-01T07:37:11;9.77;118.99
66102;HTU21D;52883;51.094;5.880;2023-04-01T07:45:37;9.98;118.99
66102;HTU21D;52883;51.094;5.880;2023-04-01T07:51:03;10.11;118.99
66102;HTU21D;52883;51.094;5.880;2023-04-01T08:04:50;10.14;118.99
66102;HTU21D;52883;51.094;5.880;2023-04-01T08:07:24;10.24;118.99
66102;HTU21D;52883;51.094;5.880;2023-04-01T08:10:36;10.21;118.99
66102;HTU21D;52883;51.094;5.880;2023-04-01T08:13:47;10.14;118.99
66102;HTU21D;52883;51.094;5.880;2023-04-01T08:17:05;10.16;118.99
66102;HTU21D;52883;51.094;5.880;2023-04-01T08:20:23;10.25;118.99
66102;HTU21D;52883;51.094;5.880;2023-04-01T08:23:03;10.33;118.99
66102;HTU21D;52883;51.094;5.880;2023-04-01T08:25:48;10.36;118.99
66102;HTU21D;52883;51.094;5.880;2023-04-01T08:28:21;10.34;118.99
66102;HTU21D;52883;51.094;5.880;2023-04-01T08:30:57;10.26;118.99
66102;HTU21D;52883;51.094;5.880;2023-04-01T08:33:29;10.23;118.99
66102;HTU21D;52883;51.094;5.880;2023-04-01T08:36:23;10.27;118.99
66102;HTU21D;52883;51.094;5.880;2023-04-01T08:39:04;10.30;118.99
66102;HTU21D;52883;51.094;5.880;2023-04-01T08:41:41;10.36;118.99
66102;HTU21D;52883;51.094;5.880;2023-04-01T08:47:52;10.59;118.99
66102;HTU21D;52883;51.094;5.880;2023-04-01T08:56:31;10.70;118.99
66102;HTU21D;52883;51.094;5.880;2023-04-01T08:59:14;10.68;118.99
66102;HTU21D;52883;51.094;5.880;2023-04-01T09:07:29;10.84;118.99
66102;HTU21D;52883;51.094;5.880;2023-04-01T09:13:04;10.98;118.99
66102;HTU21D;52883;51.094;5.880;2023-04-01T09:15:42;11.07;118.99
66102;HTU21D;52883;51.094;5.880;2023-04-01T09:26:35;10.98;118.99
66102;HTU21D;52883;51.094;5.880;2023-04-01T09:32:33;10.74;118.99
66102;HTU21D;52883;51.094;5.880;2023-04-01T09:35:47;10.82;118.99
66102;HTU21D;52883;51.094;5.880;2023-04-01T09:38:30;10.87;118.99
66102;HTU21D;52883;51.094;5.880;2023-04-01T09:41:29;10.88;118.99
66102;HTU21D;52883;51.094;5.880;2023-04-01T09:44:14;10.81;118.99
66102;HTU21D;52883;51.094;5.880;2023-04-01T09:47:06;10.78;118.99
66102;HTU21D;52883;51.094;5.880;2023-04-01T09:58:00;10.75;118.99
66102;HTU21D;52883;51.094;5.880;2023-04-01T10:30:05;11.22;118.99
66102;HTU21D;52883;51.094;5.880;2023-04-01T10:38:17;11.17;118.99
66102;HTU21D;52883;51.094;5.880;2023-04-01T10:46:56;11.41;118.99
66102;HTU21D;52883;51.094;5.880;2023-04-01T10:52:57;11.57;118.99
66102;HTU21D;52883;51.094;5.880;2023-04-01T10:58:38;11.51;118.99
66102;HTU21D;52883;51.094;5.880;2023-04-01T11:20:16;12.02;118.99
66102;HTU21D;52883;51.094;5.880;2023-04-01T11:28:58;11.92;118.99
66102;HTU21D;52883;51.094;5.880;2023-04-01T11:55:02;13.17;118.99
66102;HTU21D;52883;51.094;5.880;2023-04-01T12:00:30;13.18;118.99
66102;HTU21D;52883;51.094;5.880;2023-04-01T12:09:20;13.81;118.99
66102;HTU21D;52883;51.094;5.880;2023-04-01T12:12:10;13.69;118.99
66102;HTU21D;52883;51.094;5.880;2023-04-01T12:17:29;13.21;118.99
66102;HTU21D;52883;51.094;5.880;2023-04-01T12:20:28;13.18;118.99
66102;HTU21D;52883;51.094;5.880;2023-04-01T12:34:57;13.30;118.99
66102;HTU21D;52883;51.094;5.880;2023-04-01T12:37:27;13.55;118.99
66102;HTU21D;52883;51.094;5.880;2023-04-01T12:43:06;13.95;118.99
66102;HTU21D;52883;51.094;5.880;2023-04-01T12:46:13;14.08;118.99
66102;HTU21D;52883;51.094;5.880;2023-04-01T12:51:47;14.20;118.99
66102;HTU21D;52883;51.094;5.880;2023-04-01T12:54:29;14.66;118.99
66102;HTU21D;52883;51.094;5.880;2023-04-01T12:57:28;14.72;118.99
66102;HTU21D;52883;51.094;5.880;2023-04-01T13:16:51;13.14;118.99
66102;HTU21D;52883;51.094;5.880;2023-04-01T13:19:46;12.82;118.99
66102;HTU21D;52883;51.094;5.880;2023-04-01T13:22:41;12.60;118.99
66102;HTU21D;52883;51.094;5.880;2023-04-01T13:25:27;12.36;118.99
66102;HTU21D;52883;51.094;5.880;2023-04-01T13:28:09;12.23;118.99
66102;HTU21D;52883;51.094;5.880;2023-04-01T13:31:01;12.19;118.99
66102;HTU21D;52883;51.094;5.880;2023-04-01T13:34:05;12.14;118.99
66102;HTU21D;52883;51.094;5.880;2023-04-01T13:37:15;12.18;118.99
66102;HTU21D;52883;51.094;5.880;2023-04-01T13:40:25;12.19;118.99
66102;HTU21D;52883;51.094;5.880;2023-04-01T13:43:04;12.16;118.99
66102;HTU21D;52883;51.094;5.880;2023-04-01T13:45:42;12.06;118.99
66102;HTU21D;52883;51.094;5.880;2023-04-01T13:48:19;11.97;118.99
66102;HTU21D;52883;51.094;5.880;2023-04-01T14:01:06;11.91;118.99
66102;HTU21D;52883;51.094;5.880;2023-04-01T14:04:36;11.97;118.99
66102;HTU21D;52883;51.094;5.880;2023-04-01T14:09:58;11.81;118.99
66102;HTU21D;52883;51.094;5.880;2023-04-01T14:12:47;11.79;118.99
66102;HTU21D;52883;51.094;5.880;2023-04-01T14:15:29;11.84;118.99
66102;HTU21D;52883;51.094;5.880;2023-04-01T14:18:13;11.84;118.99
66102;HTU21D;52883;51.094;5.880;2023-04-01T14:21:05;11.88;118.99
66102;HTU21D;52883;51.094;5.880;2023-04-01T14:26:53;12.06;118.99
66102;HTU21D;52883;51.094;5.880;2023-04-01T14:35:38;12.40;118.99
66102;HTU21D;52883;51.094;5.880;2023-04-01T14:41:02;12.17;118.99
66102;HTU21D;52883;51.094;5.880;2023-04-01T14:46:52;12.05;118.99
66102;HTU21D;52883;51.094;5.880;2023-04-01T14:49:37;11.92;118.99
66102;HTU21D;52883;51.094;5.880;2023-04-01T14:52:28;11.76;118.99
66102;HTU21D;52883;51.094;5.880;2023-04-01T14:54:58;11.58;118.99
66102;HTU21D;52883;51.094;5.880;2023-04-01T14:57:31;11.38;118.99
66102;HTU21D;52883;51.094;5.880;2023-04-01T15:00:13;11.28;118.99
66102;HTU21D;52883;51.094;5.880;2023-04-01T15:05:56;11.28;118.99
66102;HTU21D;52883;51.094;5.880;2023-04-01T15:08:49;11.34;118.99
66102;HTU21D;52883;51.094;5.880;2023-04-01T15:11:50;11.36;118.99
66102;HTU21D;52883;51.094;5.880;2023-04-01T15:26:07;11.51;118.99
66102;HTU21D;52883;51.094;5.880;2023-04-01T15:31:35;11.43;118.99
66102;HTU21D;52883;51.094;5.880;2023-04-01T15:37:23;11.34;118.99
66102;HTU21D;52883;51.094;5.880;2023-04-01T15:40:11;11.34;118.99
66102;HTU21D;52883;51.094;5.880;2023-04-01T15:51:11;11.14;118.99
66102;HTU21D;52883;51.094;5.880;2023-04-01T15:56:49;10.95;118.99
66102;HTU21D;52883;51.094;5.880;2023-04-01T16:22:23;10.37;118.99
66102;HTU21D;52883;51.094;5.880;2023-04-01T16:25:17;10.26;118.99
66102;HTU21D;52883;51.094;5.880;2023-04-01T16:27:54;10.24;118.99
66102;HTU21D;52883;51.094;5.880;2023-04-01T16:30:38;10.21;118.99
66102;HTU21D;52883;51.094;5.880;2023-04-01T16:41:49;10.01;118.99
66102;HTU21D;52883;51.094;5.880;2023-04-01T16:44:23;9.99;118.99
66102;HTU21D;52883;51.094;5.880;2023-04-01T16:46:53;9.97;118.99
66102;HTU21D;52883;51.094;5.880;2023-04-01T16:50:13;9.99;118.99
66102;HTU21D;52883;51.094;5.880;2023-04-01T16:52:35;9.98;118.99
66102;HTU21D;52883;51.094;5.880;2023-04-01T16:55:18;9.98;118.99
66102;HTU21D;52883;51.094;5.880;2023-04-01T16:57:56;10.07;118.99
66102;HTU21D;52883;51.094;5.880;2023-04-01T17:00:28;10.13;118.99
66102;HTU21D;52883;51.094;5.880;2023-04-01T17:11:35;10.36;118.99
66102;HTU21D;52883;51.094;5.880;2023-04-01T17:23:01;10.21;118.99
66102;HTU21D;52883;51.094;5.880;2023-04-01T17:26:03;10.15;118.99
66102;HTU21D;52883;51.094;5.880;2023-04-01T17:34:15;10.01;118.99
66102;HTU21D;52883;51.094;5.880;2023-04-01T17:37:05;10.00;118.99
66102;HTU21D;52883;51.094;5.880;2023-04-01T17:42:37;9.86;118.99
66102;HTU21D;52883;51.094;5.880;2023-04-01T17:47:48;9.75;118.99
66102;HTU21D;52883;51.094;5.880;2023-04-01T17:58:46;9.68;118.99
66102;HTU21D;52883;51.094;5.880;2023-04-01T18:01:41;9.64;118.99
66102;HTU21D;52883;51.094;5.880;2023-04-01T18:04:37;9.61;118.99
66102;HTU21D;52883;51.094;5.880;2023-04-01T18:07:27;9.64;118.99
66102;HTU21D;52883;51.094;5.880;2023-04-01T18:10:13;9.63;118.99
66102;HTU21D;52883;51.094;5.880;2023-04-01T18:13:05;9.62;118.99
66102;HTU21D;52883;51.094;5.880;2023-04-01T18:21:43;9.53;118.99
66102;HTU21D;52883;51.094;5.880;2023-04-01T18:24:35;9.53;118.99
66102;HTU21D;52883;51.094;5.880;2023-04-01T18:27:17;9.54;118.99
66102;HTU21D;52883;51.094;5.880;2023-04-01T18:35:17;9.51;118.99
66102;HTU21D;52883;51.094;5.880;2023-04-01T18:37:46;9.54;118.99
66102;HTU21D;52883;51.094;5.880;2023-04-01T18:45:57;9.51;118.99
66102;HTU21D;52883;51.094;5.880;2023-04-01T18:54:07;9.50;118.99
66102;HTU21D;52883;51.094;5.880;2023-04-01T18:56:41;9.50;118.99
66102;HTU21D;52883;51.094;5.880;2023-04-01T18:59:22;9.52;118.99
66102;HTU21D;52883;51.094;5.880;2023-04-01T19:05:11;9.49;118.99
66102;HTU21D;52883;51.094;5.880;2023-04-01T19:07:54;9.48;118.99
66102;HTU21D;52883;51.094;5.880;2023-04-01T19:13:34;9.48;118.99
66102;HTU21D;52883;51.094;5.880;2023-04-01T19:19:24;9.51;118.99
66102;HTU21D;52883;51.094;5.880;2023-04-01T19:27:18;9.55;118.99
66102;HTU21D;52883;51.094;5.880;2023-04-01T19:30:21;9.54;118.99
66102;HTU21D;52883;51.094;5.880;2023-04-01T19:41:26;9.55;118.99
66102;HTU21D;52883;51.094;5.880;2023-04-01T19:44:00;9.55;118.99
66102;HTU21D;52883;51.094;5.880;2023-04-01T19:47:11;9.53;118.99
66102;HTU21D;52883;51.094;5.880;2023-04-01T19:49:51;9.52;118.99
66102;HTU21D;52883;51.094;5.880;2023-04-01T19:52:37;9.52;118.99
66102;HTU21D;52883;51.094;5.880;2023-04-01T19:55:27;9.52;118.99
66102;HTU21D;52883;51.094;5.880;2023-04-01T20:00:39;9.56;118.99
66102;HTU21D;52883;51.094;5.880;2023-04-01T20:05:58;9.63;118.99
66102;HTU21D;52883;51.094;5.880;2023-04-01T20:08:35;9.60;118.99
66102;HTU21D;52883;51.094;5.880;2023-04-01T20:11:35;9.60;118.99
66102;HTU21D;52883;51.094;5.880;2023-04-01T20:14:36;9.60;118.99
66102;HTU21D;52883;51.094;5.880;2023-04-01T20:17:20;9.60;118.99
66102;HTU21D;52883;51.094;5.880;2023-04-01T20:25:22;9.59;118.99
66102;HTU21D;52883;51.094;5.880;2023-04-01T20:28:00;9.59;118.99
66102;HTU21D;52883;51.094;5.880;2023-04-01T20:36:36;9.50;118.99
66102;HTU21D;52883;51.094;5.880;2023-04-01T20:45:12;9.45;118.99
66102;HTU21D;52883;51.094;5.880;2023-04-01T20:48:02;9.39;118.99
66102;HTU21D;52883;51.094;5.880;2023-04-01T20:50:59;9.38;118.99
66102;HTU21D;52883;51.094;5.880;2023-04-01T20:53:54;9.40;118.99
66102;HTU21D;52883;51.094;5.880;2023-04-01T20:56:31;9.40;118.99
66102;HTU21D;52883;51.094;5.880;2023-04-01T21:02:20;9.36;118.99
66102;HTU21D;52883;51.094;5.880;2023-04-01T21:07:41;9.31;118.99
66102;HTU21D;52883;51.094;5.880;2023-04-01T21:13:21;9.20;118.99
66102;HTU21D;52883;51.094;5.880;2023-04-01T21:22:10;9.19;118.99
66102;HTU21D;52883;51.094;5.880;2023-04-01T21:25:03;9.18;118.99
66102;HTU21D;52883;51.094;5.880;2023-04-01T21:30:54;9.05;118.99
66102;HTU21D;52883;51.094;5.880;2023-04-01T21:36:09;9.02;118.99
66102;HTU21D;52883;51.094;5.880;2023-04-01T21:41:47;8.96;118.99
66102;HTU21D;52883;51.094;5.880;2023-04-01T21:47:40;8.92;118.99
66102;HTU21D;52883;51.094;5.880;2023-04-01T21:50:47;8.90;118.99
66102;HTU21D;52883;51.094;5.880;2023-04-01T21:59:44;8.75;118.99
66102;HTU21D;52883;51.094;5.880;2023-04-01T22:07:21;8.78;118.99
66102;HTU21D;52883;51.094;5.880;2023-04-01T22:10:09;8.76;118.99
66102;HTU21D;52883;51.094;5.880;2023-04-01T22:13:05;8.74;118.99
66102;HTU21D;52883;51.094;5.880;2023-04-01T22:16:05;8.68;118.99
66102;HTU21D;52883;51.094;5.880;2023-04-01T22:18:45;8.70;118.99
66102;HTU21D;52883;51.094;5.880;2023-04-01T22:21:19;8.65;118.99
66102;HTU21D;52883;51.094;5.880;2023-04-01T22:24:04;8.62;118.99
66102;HTU21D;52883;51.094;5.880;2023-04-01T22:26:46;8.60;118.99
66102;HTU21D;52883;51.094;5.880;2023-04-01T22:29:20;8.56;118.99
66102;HTU21D;52883;51.094;5.880;2023-04-01T22:32:07;8.49;118.99
66102;HTU21D;52883;51.094;5.880;2023-04-01T22:34:52;8.48;118.99
66102;HTU21D;52883;51.094;5.880;2023-04-01T22:37:42;8.41;118.99
66102;HTU21D;52883;51.094;5.880;2023-04-01T22:42:47;8.41;118.99
66102;HTU21D;52883;51.094;5.880;2023-04-01T22:48:20;8.32;118.99
66102;HTU21D;52883;51.094;5.880;2023-04-01T22:56:47;8.12;118.99
66102;HTU21D;52883;51.094;5.880;2023-04-01T22:59:21;8.06;118.99
66102;HTU21D;52883;51.094;5.880;2023-04-01T23:01:58;8.05;118.99
66102;HTU21D;52883;51.094;5.880;2023-04-01T23:04:32;8.02;118.99
66102;HTU21D;52883;51.094;5.880;2023-04-01T23:07:04;8.03;118.99
66102;HTU21D;52883;51.094;5.880;2023-04-01T23:09:35;8.00;118.99
66102;HTU21D;52883;51.094;5.880;2023-04-01T23:12:09;8.00;118.99
66102;HTU21D;52883;51.094;5.880;2023-04-01T23:15:01;7.96;118.99
66102;HTU21D;52883;51.094;5.880;2023-04-01T23:23:30;7.84;118.99
66102;HTU21D;52883;51.094;5.880;2023-04-01T23:26:14;7.78;118.99
66102;HTU21D;52883;51.094;5.880;2023-04-01T23:28:48;7.76;118.99
66102;HTU21D;52883;51.094;5.880;2023-04-01T23:34:02;7.74;118.99
66102;HTU21D;52883;51.094;5.880;2023-04-01T23:36:31;7.73;118.99
66102;HTU21D;52883;51.094;5.880;2023-04-01T23:39:03;7.69;118.99
66102;HTU21D;52883;51.094;5.880;2023-04-01T23:41:32;7.73;118.99
66102;HTU21D;52883;51.094;5.880;2023-04-01T23:44:05;7.68;118.99
66102;HTU21D;52883;51.094;5.880;2023-04-01T23:46:34;7.68;118.99
66102;HTU21D;52883;51.094;5.880;2023-04-01T23:49:02;7.59;118.99
66102;HTU21D;52883;51.094;5.880;2023-04-01T23:51:37;7.55;118.99
66102;HTU21D;52883;51.094;5.880;2023-04-01T23:54:34;7.53;118.99
66102;HTU21D;52883;51.094;5.880;2023-04-01T23:57:12;7.50;118.99
66102;HTU21D;52883;51.094;5.880;2023-04-01T23:59:39;7.54;118.99
